Time;durP1;ratioP1;P1;durP2;ratioP2;P2;SDS_P1;SDS_P2;PMS_P1;PMS_P2;Temp;Humidity;BMP_temperature;BMP_pressure;BME280_temperature;BME280_humidity;BME280_pressure;Samples;Min_cycle;Max_cycle;Signal;HPM_P1;HPM_P2
2022/06/27 00:01:27;;;;;;;41.53;21.60;;;;;;;15.15;97.54;101432.53;5095116;28;20101;-45
2022/06/27 00:03:52;;;;;;;38.50;22.02;;;;;;;15.14;98.36;101441.19;5095092;28;20020;-46
2022/06/27 00:06:21;;;;;;;41.30;22.88;;;;;;;15.17;99.08;101445.56;5094136;28;20032;-44
2022/06/27 00:08:49;;;;;;;39.58;21.60;;;;;;;15.15;99.02;101439.47;5094843;28;20024;-46
2022/06/27 00:11:16;;;;;;;42.42;23.75;;;;;;;15.15;99.77;101435.13;5094533;28;20472;-44
2022/06/27 00:13:42;;;;;;;41.88;22.63;;;;;;;15.18;99.69;101426.53;5094062;28;20060;-45
2022/06/27 00:16:07;;;;;;;44.15;24.70;;;;;;;15.17;99.18;101431.69;5094721;28;20048;-44
2022/06/27 00:18:32;;;;;;;52.88;25.45;;;;;;;15.20;98.39;101431.78;5094815;28;20024;-45
2022/06/27 00:20:57;;;;;;;49.28;26.92;;;;;;;15.21;98.26;101437.00;5093784;28;20035;-44
2022/06/27 00:23:23;;;;;;;49.00;26.83;;;;;;;15.24;97.88;101443.97;5094484;28;20467;-46
2022/06/27 00:25:48;;;;;;;44.08;24.65;;;;;;;15.22;97.61;101441.34;5094488;28;20057;-46
2022/06/27 00:28:13;;;;;;;50.22;26.13;;;;;;;15.21;97.56;101442.19;5093643;28;20032;-45
2022/06/27 00:30:39;;;;;;;44.05;25.67;;;;;;;15.21;97.78;101447.38;5094590;28;20016;-44
2022/06/27 00:33:05;;;;;;;52.22;27.67;;;;;;;15.18;97.76;101462.00;5094257;28;20028;-45
2022/06/27 00:35:30;;;;;;;49.33;25.90;;;;;;;15.21;97.51;101455.16;5093569;28;20103;-45
2022/06/27 00:37:55;;;;;;;48.08;26.48;;;;;;;15.23;98.03;101455.19;5094195;28;20399;-45
2022/06/27 00:40:21;;;;;;;49.08;26.50;;;;;;;15.21;97.85;101457.75;5094133;28;20024;-44
2022/06/27 00:42:46;;;;;;;50.85;25.60;;;;;;;15.21;97.88;101459.47;5093600;28;20417;-45
2022/06/27 00:45:11;;;;;;;61.10;27.60;;;;;;;15.22;98.70;101459.53;5094101;28;20380;-46
2022/06/27 00:47:37;;;;;;;47.50;27.30;;;;;;;15.23;98.76;101460.38;5094292;28;20032;-44
2022/06/27 00:50:04;;;;;;;54.22;27.83;;;;;;;15.25;98.36;101458.72;5093113;28;20070;-45
2022/06/27 00:52:29;;;;;;;48.90;28.08;;;;;;;15.27;98.60;101467.38;5094053;28;20032;-46
2022/06/27 00:54:55;;;;;;;56.40;27.73;;;;;;;15.30;98.70;101473.53;5093892;28;20089;-45
2022/06/27 00:57:20;;;;;;;47.70;26.08;;;;;;;15.30;98.59;101480.44;5093346;28;20032;-44
2022/06/27 00:59:46;;;;;;;51.30;26.60;;;;;;;15.26;98.29;101473.41;5093822;28;20050;-45
2022/06/27 01:02:12;;;;;;;46.13;25.83;;;;;;;15.27;98.77;101473.47;5093020;28;20081;-46
2022/06/27 01:04:37;;;;;;;43.13;25.40;;;;;;;15.27;98.88;101468.28;5093925;28;20024;-45
2022/06/27 01:07:06;;;;;;;48.67;26.33;;;;;;;15.25;98.58;101469.09;5093632;28;20047;-47
2022/06/27 01:09:31;;;;;;;45.53;26.42;;;;;;;15.23;98.56;101466.44;5093137;28;20024;-44
2022/06/27 01:11:57;;;;;;;53.40;28.05;;;;;;;15.24;98.68;101467.34;5093762;28;20081;-45
2022/06/27 01:14:22;;;;;;;48.92;26.08;;;;;;;15.25;99.33;101472.56;5093523;28;20077;-45
2022/06/27 01:16:48;;;;;;;57.65;29.85;;;;;;;15.25;99.47;101464.75;5092995;28;20034;-46
2022/06/27 01:19:16;;;;;;;51.58;28.23;;;;;;;15.25;100.00;101471.69;5093388;28;20031;-45
2022/06/27 01:21:48;;;;;;;50.90;28.10;;;;;;;15.24;100.00;101477.72;5093505;28;20031;-44
2022/06/27 01:24:14;;;;;;;53.10;28.17;;;;;;;15.24;99.68;101478.59;5092702;28;20031;-44
2022/06/27 01:26:42;;;;;;;49.83;28.92;;;;;;;15.23;99.56;101479.41;5093083;28;20108;-45
2022/06/27 01:29:07;;;;;;;55.10;27.95;;;;;;;15.21;99.48;101480.22;5093402;28;20042;-45
2022/06/27 01:31:35;;;;;;;57.22;27.02;;;;;;;15.18;99.34;101478.44;5092676;28;20016;-45
2022/06/27 01:34:00;;;;;;;53.63;28.92;;;;;;;15.15;99.52;101471.47;5093349;28;20036;-45
2022/06/27 01:36:44;;;;;;;55.30;30.23;;;;;;;15.14;99.25;101466.25;5093207;28;20016;-44
2022/06/27 01:39:14;;;;;;;59.25;30.23;;;;;;;15.15;98.90;101457.63;5092474;28;20039;-45
2022/06/27 01:41:41;;;;;;;53.28;30.15;;;;;;;15.13;99.07;101459.31;5093187;28;20028;-45
2022/06/27 01:44:08;;;;;;;54.55;29.50;;;;;;;15.15;99.33;101440.31;5092955;28;20375;-44
2022/06/27 01:46:45;;;;;;;59.67;29.08;;;;;;;15.15;99.33;101436.84;5092361;28;20028;-45
2022/06/27 01:49:13;;;;;;;49.17;28.48;;;;;;;15.11;99.97;101435.91;5092965;28;20036;-44
2022/06/27 01:51:38;;;;;;;55.95;30.17;;;;;;;15.08;100.00;101425.47;5092597;28;20302;-45
2022/06/27 01:54:06;;;;;;;52.90;30.52;;;;;;;15.05;100.00;101429.72;5092959;28;20424;-45
2022/06/27 01:56:32;;;;;;;57.40;30.95;;;;;;;15.01;100.00;101433.97;5092953;28;20063;-44
2022/06/27 01:58:58;;;;;;;54.22;31.25;;;;;;;15.02;100.00;101425.34;5091997;28;20082;-44
2022/06/27 02:01:25;;;;;;;55.05;30.15;;;;;;;15.00;100.00;101419.25;5092790;28;20047;-44
2022/06/27 02:03:51;;;;;;;60.72;32.60;;;;;;;15.01;100.00;101412.34;5093196;28;20024;-45
2022/06/27 02:06:17;;;;;;;56.45;31.48;;;;;;;14.98;100.00;101414.03;5091980;28;20028;-45
2022/06/27 02:08:46;;;;;;;57.42;33.05;;;;;;;15.03;100.00;101414.13;5092977;28;20039;-46
2022/06/27 02:11:13;;;;;;;65.57;32.67;;;;;;;15.04;100.00;101422.78;5092634;28;20021;-46
2022/06/27 02:13:38;;;;;;;68.60;34.25;;;;;;;15.07;100.00;101422.84;5092099;28;20153;-45
2022/06/27 02:16:14;;;;;;;68.53;34.20;;;;;;;15.08;100.00;101420.28;5092535;28;20111;-46
2022/06/27 02:18:40;;;;;;;62.83;33.97;;;;;;;15.08;100.00;101415.09;5092994;28;20051;-45
2022/06/27 02:21:07;;;;;;;64.82;32.95;;;;;;;15.10;100.00;101413.38;5091896;28;20035;-46
2022/06/27 02:23:33;;;;;;;54.13;31.15;;;;;;;15.07;100.00;101409.88;5092755;28;20052;-45
2022/06/27 02:25:59;;;;;;;60.25;29.70;;;;;;;15.03;100.00;101401.16;5092563;28;20070;-45
2022/06/27 02:28:28;;;;;;;48.35;27.40;;;;;;;15.00;100.00;101393.28;5091739;28;20024;-45
2022/06/27 02:30:54;;;;;;;62.80;31.75;;;;;;;14.95;100.00;101390.63;5092766;28;20031;-45
2022/06/27 02:33:19;;;;;;;57.60;31.63;;;;;;;14.94;100.00;101388.00;5092568;28;20024;-45
2022/06/27 02:35:46;;;;;;;58.05;32.15;;;;;;;14.93;100.00;101396.63;5092023;28;20028;-45
2022/06/27 02:38:12;;;;;;;68.43;33.70;;;;;;;14.94;100.00;101390.59;5096021;28;20065;-44
2022/06/27 02:40:42;;;;;;;62.65;34.00;;;;;;;14.94;100.00;101390.59;5096396;28;20119;-45
2022/06/27 02:43:08;;;;;;;64.20;33.85;;;;;;;14.97;100.00;101401.88;5096323;28;20016;-45
2022/06/27 02:45:36;;;;;;;68.60;35.33;;;;;;;14.99;100.00;101399.34;5096734;28;20027;-44
2022/06/27 02:48:02;;;;;;;64.22;33.42;;;;;;;14.99;100.00;101399.34;5095680;28;20028;-44
2022/06/27 02:50:31;;;;;;;62.28;32.40;;;;;;;14.91;100.00;101385.31;5096316;28;20361;-45
2022/06/27 02:53:02;;;;;;;57.15;30.52;;;;;;;14.82;100.00;101376.50;5096188;28;20024;-44
2022/06/27 02:55:38;;;;;;;56.28;31.08;;;;;;;14.79;100.00;101379.03;5095563;28;20016;-45
2022/06/27 02:58:12;;;;;;;63.22;32.85;;;;;;;14.71;100.00;101370.22;5096238;28;20036;-44
2022/06/27 03:00:39;;;;;;;57.38;31.80;;;;;;;14.58;100.00;101373.38;5096416;28;20047;-45
2022/06/27 03:03:06;;;;;;;64.43;31.65;;;;;;;14.51;100.00;101379.25;5095398;28;20103;-45
2022/06/27 03:05:32;;;;;;;59.40;33.00;;;;;;;14.39;100.00;101364.31;5096079;28;20020;-44
2022/06/27 03:07:58;;;;;;;63.10;32.50;;;;;;;14.29;100.00;101363.22;5095739;28;20032;-45
2022/06/27 03:10:25;;;;;;;60.53;32.50;;;;;;;14.20;100.00;101361.28;5095436;28;20016;-45
2022/06/27 03:12:50;;;;;;;67.40;35.67;;;;;;;14.16;100.00;101370.72;5096148;28;20016;-45
2022/06/27 03:15:15;;;;;;;58.83;33.70;;;;;;;14.09;100.00;101358.44;5095898;28;20024;-46
2022/06/27 03:17:41;;;;;;;70.40;35.95;;;;;;;14.02;100.00;101359.16;5095277;28;20028;-44
2022/06/27 03:20:07;;;;;;;67.95;35.28;;;;;;;13.95;100.00;101352.06;5095693;28;20387;-46
2022/06/27 03:22:32;;;;;;;69.65;36.30;;;;;;;13.93;100.00;101364.09;5095612;28;20438;-44
2022/06/27 03:24:58;;;;;;;76.13;37.13;;;;;;;13.91;100.00;101366.66;5094785;28;20417;-45
2022/06/27 03:27:23;;;;;;;71.82;38.58;;;;;;;13.96;100.00;101366.78;5095729;28;20055;-46
2022/06/27 03:29:49;;;;;;;81.82;40.20;;;;;;;13.96;100.00;101353.84;5095570;28;20034;-45
2022/06/27 03:32:14;;;;;;;75.28;39.95;;;;;;;13.90;100.00;101358.84;5094630;28;20020;-46
2022/06/27 03:34:39;;;;;;;72.63;37.25;;;;;;;13.86;100.00;101360.50;5095685;28;20024;-44
2022/06/27 03:37:05;;;;;;;78.45;38.78;;;;;;;13.83;100.00;101363.03;5094671;28;20379;-45
2022/06/27 03:39:32;;;;;;;71.53;37.80;;;;;;;13.77;100.00;101352.50;5095420;28;20547;-44
2022/06/27 03:41:57;;;;;;;81.38;40.17;;;;;;;13.83;100.00;101348.34;5095591;28;20024;-44
2022/06/27 03:44:23;;;;;;;82.97;40.75;;;;;;;13.86;100.00;101354.44;5094531;28;20019;-44
2022/06/27 03:46:48;;;;;;;70.90;36.97;;;;;;;13.76;100.00;101355.94;5095313;28;20035;-45
2022/06/27 03:51:57;;;;;;;77.95;36.67;;;;;;;13.65;100.00;101364.31;5094627;28;20570;-45
2022/06/27 03:54:23;;;;;;;72.38;38.05;;;;;;;13.64;100.00;101353.91;5095269;28;20036;-44
2022/06/27 03:56:48;;;;;;;61.92;33.15;;;;;;;13.57;100.00;101359.75;5095277;28;20038;-44
2022/06/27 03:59:14;;;;;;;67.82;35.22;;;;;;;13.59;100.00;101363.28;5093925;28;20040;-46
2022/06/27 04:01:39;;;;;;;73.50;36.33;;;;;;;13.50;100.00;101363.91;5095054;28;20482;-45
2022/06/27 04:04:05;;;;;;;70.45;38.00;;;;;;;13.50;100.00;101369.09;5094913;28;20032;-46
2022/06/27 04:06:31;;;;;;;84.10;41.53;;;;;;;13.56;100.00;101383.94;5094128;28;20446;-45
2022/06/27 04:08:58;;;;;;;103.97;45.80;;;;;;;13.62;100.00;101390.13;5094880;28;20111;-45
2022/06/27 04:11:23;;;;;;;91.57;42.17;;;;;;;13.69;100.00;101378.22;5094937;28;20020;-45
2022/06/27 04:13:48;;;;;;;80.13;38.97;;;;;;;13.70;100.00;101369.63;5094223;28;20145;-45
2022/06/27 04:16:13;;;;;;;83.45;41.20;;;;;;;13.76;100.00;101374.97;5094584;28;20050;-45
2022/06/27 04:18:39;;;;;;;85.60;40.63;;;;;;;13.85;100.00;101370.81;5094666;28;20020;-46
2022/06/27 04:21:04;;;;;;;85.07;40.75;;;;;;;13.91;100.00;101378.75;5093615;28;20472;-45
2022/06/27 04:23:29;;;;;;;78.72;38.97;;;;;;;13.95;100.00;101373.66;5094970;28;20031;-44
2022/06/27 04:25:55;;;;;;;84.78;42.35;;;;;;;14.07;100.00;101372.22;5094849;28;20024;-45
2022/06/27 04:28:20;;;;;;;90.70;45.85;;;;;;;14.19;100.00;101356.06;5093710;28;20149;-45
2022/06/27 04:30:47;;;;;;;86.80;42.88;;;;;;;14.26;100.00;101347.59;5094456;28;20099;-45
2022/06/27 04:33:13;;;;;;;85.60;42.60;;;;;;;14.35;100.00;101340.03;5093524;28;20032;-45
2022/06/27 04:35:40;;;;;;;95.40;45.83;;;;;;;14.48;100.00;101339.44;5094323;28;20020;-45
2022/06/27 04:38:06;;;;;;;99.38;45.58;;;;;;;14.59;100.00;101331.91;5094122;28;20452;-45
2022/06/27 04:40:32;;;;;;;100.38;47.53;;;;;;;14.67;100.00;101313.94;5093606;28;20028;-45
2022/06/27 04:42:58;;;;;;;104.80;47.28;;;;;;;14.69;100.00;101307.03;5094265;28;20051;-46
2022/06/27 04:45:23;;;;;;;90.90;44.25;;;;;;;14.72;100.00;101301.91;5094091;28;20061;-45
2022/06/27 04:47:49;;;;;;;91.45;45.70;;;;;;;14.81;100.00;101311.63;5093215;28;20046;-45
2022/06/27 04:50:18;;;;;;;95.28;45.30;;;;;;;14.88;100.00;101313.47;5093769;28;20024;-46
2022/06/27 04:52:44;;;;;;;90.22;44.00;;;;;;;14.93;100.00;101308.38;5093976;28;20475;-44
2022/06/27 04:55:12;;;;;;;80.45;41.38;;;;;;;15.00;100.00;101314.56;5092907;28;20032;-45
2022/06/27 04:57:40;;;;;;;83.18;41.97;;;;;;;15.03;100.00;101318.09;5093943;28;20081;-45
2022/06/27 05:00:10;;;;;;;83.65;43.22;;;;;;;15.08;100.00;101332.03;5092898;28;20020;-45
2022/06/27 05:02:35;;;;;;;84.78;41.30;;;;;;;15.13;100.00;101339.88;5093111;28;20024;-44
2022/06/27 05:05:02;;;;;;;76.85;38.92;;;;;;;15.14;100.00;101341.63;5093557;28;20024;-45
2022/06/27 05:07:28;;;;;;;80.22;40.63;;;;;;;15.17;100.00;101322.66;5093751;28;20110;-46
2022/06/27 05:09:54;;;;;;;75.15;38.40;;;;;;;15.18;100.00;101314.00;5093216;28;20048;-45
2022/06/27 05:12:19;;;;;;;75.28;38.42;;;;;;;15.17;100.00;101318.34;5093442;28;20051;-44
2022/06/27 05:14:46;;;;;;;70.60;37.25;;;;;;;15.13;100.00;101307.03;5094191;28;20024;-45
2022/06/27 05:17:11;;;;;;;73.85;35.58;;;;;;;15.13;100.00;101303.53;5092429;28;20082;-45
2022/06/27 05:19:37;;;;;;;71.22;37.70;;;;;;;15.11;100.00;101306.09;5093617;28;20012;-45
2022/06/27 05:22:02;;;;;;;66.63;36.83;;;;;;;15.12;100.00;101305.28;5093304;28;20383;-45
2022/06/27 05:24:27;;;;;;;66.68;35.78;;;;;;;15.10;100.00;101314.72;5092712;28;20468;-46
2022/06/27 05:26:54;;;;;;;64.60;34.55;;;;;;;15.10;100.00;101321.66;5093404;28;20383;-44
2022/06/27 05:29:20;;;;;;;67.18;34.10;;;;;;;15.09;100.00;101325.09;5093123;28;20028;-45
2022/06/27 05:31:45;;;;;;;68.82;35.67;;;;;;;15.10;100.00;101319.94;5092589;28;20356;-44
2022/06/27 05:34:11;;;;;;;67.88;36.88;;;;;;;15.12;100.00;101323.44;5093273;28;20463;-45
2022/06/27 05:36:37;;;;;;;75.82;39.83;;;;;;;15.13;100.00;101317.41;5092405;28;20441;-46
2022/06/27 05:39:03;;;;;;;67.43;37.60;;;;;;;15.17;100.00;101351.19;5093301;28;20531;-45
2022/06/27 05:41:29;;;;;;;79.72;38.75;;;;;;;15.20;100.00;101375.50;5093194;28;20024;-46
2022/06/27 05:43:54;;;;;;;78.32;37.90;;;;;;;15.28;100.00;101392.09;5092489;28;20020;-44
2022/06/27 05:46:20;;;;;;;71.05;36.80;;;;;;;15.38;100.00;101413.94;5092853;28;20031;-45
2022/06/27 05:48:46;;;;;;;73.68;38.35;;;;;;;15.52;100.00;101418.50;5093279;28;20028;-45
2022/06/27 05:51:12;;;;;;;70.70;38.30;;;;;;;15.61;100.00;101416.97;5092150;28;20097;-46
2022/06/27 05:53:38;;;;;;;71.25;37.55;;;;;;;15.66;100.00;101426.56;5092959;28;20365;-46
2022/06/27 05:56:05;;;;;;;68.85;36.83;;;;;;;15.73;100.00;101442.28;5092771;28;20028;-45
2022/06/27 05:58:31;;;;;;;78.97;37.55;;;;;;;15.77;100.00;101453.63;5091993;28;20067;-45
2022/06/27 06:00:57;;;;;;;72.50;37.63;;;;;;;15.77;100.00;101444.09;5092778;28;20032;-46
2022/06/27 06:03:22;;;;;;;73.85;36.65;;;;;;;15.85;100.00;101439.06;5092709;28;20073;-44
2022/06/27 06:05:48;;;;;;;73.05;36.47;;;;;;;15.89;100.00;101445.19;5092358;28;20375;-45
2022/06/27 06:08:14;;;;;;;71.50;36.72;;;;;;;15.90;100.00;101444.34;5092534;28;20028;-44
2022/06/27 06:10:39;;;;;;;75.20;38.42;;;;;;;15.94;100.00;101436.59;5092872;28;20032;-45
2022/06/27 06:13:05;;;;;;;74.28;37.55;;;;;;;15.97;100.00;101420.19;5098320;28;20039;-45
2022/06/27 06:15:32;;;;;;;68.22;35.35;;;;;;;16.01;100.00;101415.91;5099418;28;20028;-44
2022/06/27 06:18:01;;;;;;;68.05;36.13;;;;;;;16.06;100.00;101417.75;5099377;28;20024;-44
2022/06/27 06:20:26;;;;;;;63.97;34.40;;;;;;;16.10;100.00;101422.16;5098642;28;20527;-45
2022/06/27 06:22:52;;;;;;;65.85;35.67;;;;;;;16.15;100.00;101426.53;5099634;28;20028;-45
2022/06/27 06:25:17;;;;;;;61.03;33.40;;;;;;;16.18;100.00;101431.78;5099121;28;20020;-45
2022/06/27 06:27:44;;;;;;;66.32;34.47;;;;;;;16.16;99.93;101436.09;5098636;28;20059;-45
2022/06/27 06:30:10;;;;;;;69.43;34.97;;;;;;;16.15;98.49;101447.34;5099026;28;20365;-45
2022/06/27 06:32:36;;;;;;;64.18;35.78;;;;;;;16.17;99.42;101450.84;5099829;28;20024;-47
2022/06/27 06:35:02;;;;;;;65.18;35.63;;;;;;;16.17;99.62;101448.25;5098367;28;20031;-45
2022/06/27 06:37:29;;;;;;;66.45;34.17;;;;;;;16.18;99.16;101442.19;5099403;28;20035;-45
2022/06/27 06:39:54;;;;;;;65.95;35.33;;;;;;;16.18;99.06;101447.38;5098577;28;20076;-45
2022/06/27 06:42:20;;;;;;;63.50;36.08;;;;;;;16.23;99.33;101448.34;5099086;28;20028;-45
2022/06/27 06:44:46;;;;;;;65.30;35.22;;;;;;;16.25;99.69;101433.63;5099264;28;20024;-45
2022/06/27 06:47:14;;;;;;;66.35;36.88;;;;;;;16.29;99.22;101418.13;5098374;28;20103;-44
2022/06/27 06:49:41;;;;;;;75.28;36.97;;;;;;;16.32;98.90;101412.09;5099371;28;20111;-45
2022/06/27 06:52:07;;;;;;;63.57;36.30;;;;;;;16.36;99.13;101398.25;5099162;28;20026;-44
2022/06/27 06:54:32;;;;;;;70.13;38.60;;;;;;;16.41;100.00;101385.31;5098444;28;20035;-46
2022/06/27 06:56:58;;;;;;;67.15;37.85;;;;;;;16.45;99.17;101377.56;5099009;28;20017;-44
2022/06/27 06:59:23;;;;;;;70.78;39.28;;;;;;;16.54;99.08;101381.16;5098871;28;20052;-46
2022/06/27 07:01:50;;;;;;;71.07;37.05;;;;;;;16.64;99.38;101367.41;5098631;28;20024;-46
2022/06/27 07:04:16;;;;;;;68.72;38.38;;;;;;;16.81;98.65;101375.44;5099090;28;20119;-45
2022/06/27 07:06:43;;;;;;;72.23;37.73;;;;;;;16.98;97.75;101388.69;5099271;28;20049;-46
2022/06/27 07:09:09;;;;;;;68.30;36.55;;;;;;;17.12;95.58;101391.47;5098065;28;20439;-44
2022/06/27 07:11:40;;;;;;;65.70;35.88;;;;;;;17.30;94.72;101390.78;5099005;28;20024;-45
2022/06/27 07:14:05;;;;;;;75.32;37.20;;;;;;;17.52;94.05;101385.78;5098835;28;20036;-45
2022/06/27 07:16:35;;;;;;;67.55;37.05;;;;;;;17.67;93.27;101367.66;5098539;28;20387;-45
2022/06/27 07:19:00;;;;;;;65.22;34.03;;;;;;;17.75;90.82;101368.63;5098971;28;20121;-45
2022/06/27 07:21:28;;;;;;;67.75;36.53;;;;;;;17.77;89.40;101387.75;5098803;28;20459;-43
2022/06/27 07:23:54;;;;;;;65.32;35.13;;;;;;;17.72;88.87;101401.59;5095095;28;20027;-44
2022/06/27 07:26:21;;;;;;;59.70;33.15;;;;;;;17.72;89.36;101410.28;5095575;28;20126;-46
2022/06/27 07:28:48;;;;;;;60.20;34.92;;;;;;;17.77;89.79;101424.25;5095584;28;20540;-46
2022/06/27 07:31:14;;;;;;;56.35;33.60;;;;;;;17.91;87.10;101431.31;5094816;28;20028;-46
2022/06/27 07:33:41;;;;;;;63.22;32.42;;;;;;;17.95;86.92;101433.13;5095718;28;20028;-46
2022/06/27 07:36:10;;;;;;;60.50;31.98;;;;;;;18.14;86.63;101428.03;5094757;28;20035;-46
2022/06/27 07:38:38;;;;;;;64.38;32.25;;;;;;;18.28;85.25;101421.19;5095522;28;20021;-45
2022/06/27 07:41:05;;;;;;;56.60;30.73;;;;;;;18.56;83.16;101422.22;5095259;28;20055;-44
2022/06/27 07:43:32;;;;;;;57.55;30.60;;;;;;;18.53;81.17;101421.38;5095006;28;20028;-46
2022/06/27 07:45:58;;;;;;;67.13;30.27;;;;;;;18.75;82.04;101433.66;5095392;28;20028;-45
2022/06/27 07:48:24;;;;;;;56.78;30.23;;;;;;;18.85;81.58;101441.53;5095288;28;20030;-46
2022/06/27 07:50:49;;;;;;;53.08;30.10;;;;;;;19.02;82.17;101431.22;5094568;28;20028;-44
2022/06/27 07:53:15;;;;;;;52.38;29.92;;;;;;;19.10;80.38;101431.25;5095023;28;20623;-49
2022/06/27 07:55:44;;;;;;;65.85;30.17;;;;;;;19.17;79.90;101439.09;5095022;28;20028;-49
2022/06/27 07:58:14;;;;;;;55.65;30.25;;;;;;;19.00;79.36;101454.69;5094178;28;20132;-47
2022/06/27 08:00:39;;;;;;;52.15;27.92;;;;;;;18.96;79.67;101452.94;5095170;28;20031;-49
2022/06/27 08:03:36;;;;;;;53.13;28.63;;;;;;;18.89;80.92;101453.75;5094954;28;20103;-49
2022/06/27 08:05:51;;;;;;;51.75;26.20;;;;;;;18.72;79.66;101464.97;5094030;28;20053;-49
2022/06/27 08:08:17;;;;;;;46.40;25.88;;;;;;;18.71;80.99;101468.47;5094521;28;20024;-55
2022/06/27 08:10:42;;;;;;;48.63;26.33;;;;;;;18.90;81.88;101468.56;5094979;28;20020;-46
2022/06/27 08:13:08;;;;;;;52.42;27.40;;;;;;;19.05;79.65;101466.03;5094110;28;20035;-45
2022/06/27 08:15:34;;;;;;;57.08;27.75;;;;;;;19.15;79.44;101468.72;5094860;28;20388;-46
2022/06/27 08:18:00;;;;;;;50.85;25.92;;;;;;;19.27;79.12;101473.97;5094674;28;20024;-46
2022/06/27 08:20:26;;;;;;;46.78;26.17;;;;;;;19.31;78.03;101454.81;5093786;28;20476;-48
2022/06/27 08:22:51;;;;;;;48.35;25.75;;;;;;;19.37;78.45;101453.97;5094682;28;20026;-47
2022/06/27 08:25:17;;;;;;;48.40;26.08;;;;;;;19.40;76.96;101459.19;5093873;28;20020;-50
2022/06/27 08:27:44;;;;;;;69.43;27.80;;;;;;;19.42;77.91;101463.56;5094603;28;20031;-50
2022/06/27 08:30:10;;;;;;;47.17;25.63;;;;;;;19.24;76.73;101466.13;5094338;28;20027;-50
2022/06/27 08:32:35;;;;;;;49.40;25.60;;;;;;;19.12;77.77;101484.34;5093874;28;20150;-48
2022/06/27 08:35:01;;;;;;;47.50;25.77;;;;;;;19.03;77.73;101491.28;5094194;28;20095;-47
2022/06/27 08:37:27;;;;;;;50.35;26.90;;;;;;;18.93;78.67;101497.34;5094273;28;20471;-46
2022/06/27 08:39:53;;;;;;;48.08;27.00;;;;;;;18.83;79.06;101496.38;5093792;28;20028;-47
2022/06/27 08:42:19;;;;;;;51.25;26.65;;;;;;;18.68;78.62;101507.63;5094286;28;20146;-52
2022/06/27 08:44:45;;;;;;;50.78;28.00;;;;;;;18.64;80.35;101491.91;5094309;28;20024;-48
2022/06/27 08:47:11;;;;;;;47.70;27.15;;;;;;;18.59;79.72;101494.47;5093152;28;20026;-46
2022/06/27 08:49:37;;;;;;;52.25;27.27;;;;;;;18.60;80.34;101493.63;5094107;28;20047;-48
2022/06/27 08:52:03;;;;;;;49.30;25.30;;;;;;;18.60;78.06;101498.84;5093913;28;20069;-49
2022/06/27 08:54:29;;;;;;;45.78;25.35;;;;;;;18.78;81.28;101489.38;5093400;28;20058;-51
2022/06/27 08:56:54;;;;;;;62.13;26.95;;;;;;;18.85;79.77;101486.81;5094107;28;20416;-47
2022/06/27 08:59:20;;;;;;;47.92;25.45;;;;;;;18.91;80.04;101486.00;5093600;28;20051;-47
2022/06/27 09:01:45;;;;;;;52.53;27.05;;;;;;;18.92;79.64;101485.13;5093171;28;20030;-48
2022/06/27 09:04:11;;;;;;;47.60;26.58;;;;;;;18.92;78.85;101499.06;5093636;28;20016;-48
2022/06/27 09:06:43;;;;;;;49.17;27.83;;;;;;;18.95;77.53;101502.56;5093794;28;20052;-48
2022/06/27 09:09:08;;;;;;;45.13;25.30;;;;;;;19.10;77.07;101517.47;5092756;28;20471;-48
2022/06/27 09:11:39;;;;;;;42.78;23.73;;;;;;;19.41;76.32;101521.94;5093949;28;20022;-48
2022/06/27 09:14:06;;;;;;;43.45;23.10;;;;;;;19.30;73.68;101512.31;5093600;28;20024;-51
2022/06/27 09:16:33;;;;;;;40.73;22.30;;;;;;;19.29;74.28;101514.06;5092900;28;20095;-49
2022/06/27 09:18:58;;;;;;;48.75;25.67;;;;;;;19.37;73.98;101508.88;5093405;28;20274;-48
2022/06/27 09:21:25;;;;;;;49.35;25.38;;;;;;;19.42;75.24;101494.94;5093671;28;20077;-51
2022/06/27 09:23:58;;;;;;;51.30;25.02;;;;;;;19.54;73.51;101488.00;5092884;28;20028;-49
2022/06/27 09:26:28;;;;;;;42.50;25.13;;;;;;;19.81;73.32;101487.19;5093470;28;20073;-49
2022/06/27 09:28:53;;;;;;;37.92;21.15;;;;;;;20.02;71.20;101502.03;5092561;28;20841;-48
2022/06/27 09:31:25;;;;;;;35.83;20.27;;;;;;;20.26;71.03;101510.78;5093051;28;20040;-47
2022/06/27 09:34:23;;;;;;;37.47;20.42;;;;;;;20.36;72.91;101515.16;5093583;28;20032;-47
2022/06/27 09:36:51;;;;;;;39.97;21.58;;;;;;;20.40;70.02;101511.66;5092716;28;20410;-47
2022/06/27 09:39:20;;;;;;;46.53;22.20;;;;;;;20.28;68.31;101509.03;5093084;28;20020;-48
2022/06/27 09:41:56;;;;;;;42.20;21.98;;;;;;;20.34;69.58;101508.19;5093115;28;20027;-47
2022/06/27 09:44:24;;;;;;;37.83;19.33;;;;;;;20.48;67.22;101501.19;5092568;28;20047;-50
2022/06/27 09:47:19;;;;;;;37.22;20.33;;;;;;;20.69;66.74;101508.13;5092482;28;20387;-48
2022/06/27 09:49:47;;;;;;;44.22;23.10;;;;;;;20.72;64.81;101500.31;5089465;28;20448;-46
2022/06/27 09:52:15;;;;;;;42.47;21.02;;;;;;;21.05;66.99;101498.44;5092825;28;20020;-47
2022/06/27 09:54:43;;;;;;;43.08;21.10;;;;;;;21.35;65.09;101506.19;5093309;28;20024;-47
2022/06/27 09:57:10;;;;;;;42.47;22.98;;;;;;;21.45;64.85;101501.78;5092256;28;20028;-47
2022/06/27 09:59:38;;;;;;;36.92;20.85;;;;;;;21.68;63.36;101494.69;5092887;28;20044;-49
2022/06/27 10:02:04;;;;;;;40.08;20.67;;;;;;;21.86;63.03;101498.94;5092815;28;20032;-48
2022/06/27 10:04:31;;;;;;;40.30;22.58;;;;;;;21.78;63.10;101505.09;5092100;28;20531;-48
2022/06/27 10:06:59;;;;;;;50.95;23.70;;;;;;;21.88;65.09;101491.03;5092717;28;20035;-48
2022/06/27 10:09:25;;;;;;;45.72;24.35;;;;;;;21.82;67.93;101480.59;5092560;28;20495;-52
2022/06/27 10:12:23;;;;;;;46.38;22.52;;;;;;;21.97;69.35;101480.47;5092184;28;20021;-48
2022/06/27 10:15:10;;;;;;;45.72;21.35;;;;;;;22.22;67.13;101479.41;5092898;28;20028;-49
2022/06/27 10:17:36;;;;;;;;;;;;;;;22.60;68.04;101476.44;5093466;28;20173;-52
2022/06/27 10:20:12;;;;;;;39.50;19.55;;;;;;;22.71;62.61;101478.97;5092097;28;19912;-49
2022/06/27 10:22:38;;;;;;;39.63;19.40;;;;;;;22.87;60.62;101474.41;5092769;28;20030;-48
2022/06/27 10:25:26;;;;;;;34.83;17.27;;;;;;;23.38;61.73;101472.91;5091907;28;20046;-50
2022/06/27 10:30:47;;;;;;;32.08;17.00;;;;;;;23.73;56.29;101476.78;5092851;28;20007;-49
2022/06/27 10:33:19;;;;;;;32.95;16.52;;;;;;;23.80;57.99;101467.91;5091754;28;20031;-49
2022/06/27 10:36:02;;;;;;;35.50;17.40;;;;;;;23.77;58.22;101475.84;5092530;28;20352;-46
2022/06/27 10:38:27;;;;;;;25.45;11.55;;;;;;;23.84;52.75;101480.13;5092794;28;20039;-49
2022/06/27 10:40:54;;;;;;;30.13;15.30;;;;;;;23.47;54.07;101471.03;5092049;28;20044;-47
2022/06/27 10:43:37;;;;;;;33.45;15.45;;;;;;;23.28;58.25;101480.94;5092529;28;20028;-49
2022/06/27 10:46:11;;;;;;;30.85;15.30;;;;;;;23.02;58.41;101487.38;5091724;28;20059;-49
2022/06/27 10:48:38;;;;;;;32.17;15.70;;;;;;;22.91;57.57;101484.00;5092342;28;20032;-50
2022/06/27 10:51:26;;;;;;;28.55;13.77;;;;;;;22.89;59.22;101487.53;5092278;28;20517;-50
2022/06/27 10:54:04;;;;;;;25.38;13.38;;;;;;;22.63;58.75;101484.31;5091854;28;20043;-50
2022/06/27 10:56:42;;;;;;;30.98;14.05;;;;;;;22.53;56.54;101482.66;5092374;28;20024;-50
2022/06/27 10:59:13;;;;;;;29.13;13.80;;;;;;;22.17;58.16;101484.72;5093818;28;20123;-49
2022/06/27 11:01:40;;;;;;;25.35;13.05;;;;;;;21.98;58.48;101491.88;5095733;28;20032;-48
2022/06/27 11:04:06;;;;;;;;;;;;;;;22.19;61.09;101480.31;5096659;28;20111;-50
2022/06/27 11:06:32;;;;;;;29.30;15.07;;;;;;;21.83;62.05;101483.22;5095890;28;19947;-49
2022/06/27 11:08:57;;;;;;;27.48;15.57;;;;;;;21.68;61.10;101499.06;5095186;28;20032;-46
2022/06/27 11:11:27;;;;;;;33.10;16.50;;;;;;;21.53;62.61;101492.13;5095887;28;20073;-46
2022/06/27 11:14:00;;;;;;;38.67;17.60;;;;;;;21.36;62.51;101485.22;5096403;28;20028;-51